Aérodrome :
LOGIN :

S'inscrire | Disclaimer

   EN    FR    IT 

 










Légende :    VFR   VFR Marginal   IFR   IFR Intensif   IFR Très Intensif
Visi : 
Plafond : 
>= 8 km
>= 3000ft
5 à 8 km
1000 à 3000 ft
1500m à 5 km
500 à 1000 ft
800 à 1500m
200 à 500 ft
< 800m
< 200 ft
Symboles :   Orages  Brouillard  Fortes neiges  Fortes précipitations  Vent > 20 kt
SIGMETs :   Divers  Orages  Givrage  Turbulence  Onde Orograph.  Cendres Volcan.






- Altitude de l'aérodrome : 1273 ft
- Code IATA : LJU


LJLJ - Ljubljana

DERNIER METAR :
  • 011330Z 31007KT 280V350 9999 FEW030CB FEW040 BKN050 22/19 Q1006 WS ALL RWY NOSIG

METARs EXPIRÉS :
  • 011300Z 31011KT 9999 FEW030CB FEW040 BKN060 22/18 Q1005 WS ALL RWY NOSIG
  • 011230Z 36002KT 9999 VCTS FEW030CB FEW040 BKN060 21/19 Q1006 WS ALL RWY NOSIG
  • 011200Z 09003KT 030V140 9999 VCTS FEW030CB FEW050 BKN060 20/19 Q1005 WS ALL RWY NOSIG
  • 011130Z 35008KT 9999 -SHRA VCTS FEW030CB FEW050 BKN060 19/17 Q1006 RETSRA NOSIG
  • 011100Z 33007KT 6000 +TSRA FEW030CB FEW050 BKN060 18/18 Q1006 NOSIG

TAF TAF LJLJ
Valide du 01 à 12h jusqu'au 02 à 12h UTC


011100Z 0112/0212 27005KT 9999 FEW050
TEMPO 0112/0124 31015KT 5000 TSRA SCT045CB BKN050
TEMPO 0200/0212 SHRA SCT030TCU BKN060
PROB30
TEMPO 0200/0210 BKN015



MET'MAP, la Météo Aéronautique d'un coup d'oeil ! - Copyright ORBIFLY Décembre 2007 - Disclaimer

ORBIFLY MET'MAP TEAM :

Programmation & Développement : Alexandra Zaïnal
Sur une idée originale de : Baudouin d'Aumeries
Assistance à la programmation : Marc-Olivier Méhu
Soutien technique & logistique : Manuel Goepfert

Contact : metmap@orbifly.com




SOURCES & CREDITS :

   NOAA